sensor_id;sensor_type;location;lat;lon;timestamp;temperature;humidity
20891;DHT22;10605;52.968;8.844;2023-04-01T00:00:47;10.00;99.90
20891;DHT22;10605;52.968;8.844;2023-04-01T00:03:13;10.00;99.90
20891;DHT22;10605;52.968;8.844;2023-04-01T00:05:38;9.90;99.90
20891;DHT22;10605;52.968;8.844;2023-04-01T00:08:04;10.00;99.90
20891;DHT22;10605;52.968;8.844;2023-04-01T00:10:30;10.00;99.90
20891;DHT22;10605;52.968;8.844;2023-04-01T00:12:56;10.00;99.90
20891;DHT22;10605;52.968;8.844;2023-04-01T00:15:22;10.00;99.90
20891;DHT22;10605;52.968;8.844;2023-04-01T00:17:47;10.00;99.90
20891;DHT22;10605;52.968;8.844;2023-04-01T00:20:13;10.00;99.90
20891;DHT22;10605;52.968;8.844;2023-04-01T00:22:40;10.00;99.90
20891;DHT22;10605;52.968;8.844;2023-04-01T00:25:06;10.00;99.90
20891;DHT22;10605;52.968;8.844;2023-04-01T00:27:32;10.00;99.90
20891;DHT22;10605;52.968;8.844;2023-04-01T00:29:58;10.00;99.90
20891;DHT22;10605;52.968;8.844;2023-04-01T00:32:23;10.00;99.90
20891;DHT22;10605;52.968;8.844;2023-04-01T00:34:52;10.00;99.90
20891;DHT22;10605;52.968;8.844;2023-04-01T00:37:19;10.00;99.90
20891;DHT22;10605;52.968;8.844;2023-04-01T00:39:44;10.00;99.90
20891;DHT22;10605;52.968;8.844;2023-04-01T00:42:11;10.00;99.90
20891;DHT22;10605;52.968;8.844;2023-04-01T00:44:38;10.00;99.90
20891;DHT22;10605;52.968;8.844;2023-04-01T00:47:04;10.00;99.90
20891;DHT22;10605;52.968;8.844;2023-04-01T00:49:33;10.00;99.90
20891;DHT22;10605;52.968;8.844;2023-04-01T00:52:02;10.00;99.90
20891;DHT22;10605;52.968;8.844;2023-04-01T00:54:30;10.00;99.90
20891;DHT22;10605;52.968;8.844;2023-04-01T00:59:26;10.00;99.90
20891;DHT22;10605;52.968;8.844;2023-04-01T01:01:52;10.00;99.90
20891;DHT22;10605;52.968;8.844;2023-04-01T01:04:25;10.00;99.90
20891;DHT22;10605;52.968;8.844;2023-04-01T01:14:59;10.00;99.90
20891;DHT22;10605;52.968;8.844;2023-04-01T01:25:51;10.00;99.90
20891;DHT22;10605;52.968;8.844;2023-04-01T01:31:34;10.00;99.90
20891;DHT22;10605;52.968;8.844;2023-04-01T01:34:29;9.90;99.90
20891;DHT22;10605;52.968;8.844;2023-04-01T01:37:10;9.90;99.90
20891;DHT22;10605;52.968;8.844;2023-04-01T01:39:39;10.00;99.90
20891;DHT22;10605;52.968;8.844;2023-04-01T01:42:09;10.00;99.90
20891;DHT22;10605;52.968;8.844;2023-04-01T01:44:38;10.00;99.90
20891;DHT22;10605;52.968;8.844;2023-04-01T01:47:05;9.90;99.90
20891;DHT22;10605;52.968;8.844;2023-04-01T01:49:33;9.90;99.90
20891;DHT22;10605;52.968;8.844;2023-04-01T01:51:59;9.90;99.90
20891;DHT22;10605;52.968;8.844;2023-04-01T01:54:25;9.90;99.90
20891;DHT22;10605;52.968;8.844;2023-04-01T01:56:59;9.90;99.90
20891;DHT22;10605;52.968;8.844;2023-04-01T01:59:28;9.90;99.90
20891;DHT22;10605;52.968;8.844;2023-04-01T02:01:55;9.90;99.90
20891;DHT22;10605;52.968;8.844;2023-04-01T02:04:22;9.90;99.90
20891;DHT22;10605;52.968;8.844;2023-04-01T02:07:02;9.90;99.90
20891;DHT22;10605;52.968;8.844;2023-04-01T02:09:28;9.90;99.90
20891;DHT22;10605;52.968;8.844;2023-04-01T02:11:58;9.90;99.90
20891;DHT22;10605;52.968;8.844;2023-04-01T02:15:09;9.90;99.90
20891;DHT22;10605;52.968;8.844;2023-04-01T02:17:19;9.90;99.90
20891;DHT22;10605;52.968;8.844;2023-04-01T02:19:57;9.90;99.90
20891;DHT22;10605;52.968;8.844;2023-04-01T02:22:28;9.80;99.90
20891;DHT22;10605;52.968;8.844;2023-04-01T02:24:58;9.80;99.90
20891;DHT22;10605;52.968;8.844;2023-04-01T02:27:24;9.80;99.90
20891;DHT22;10605;52.968;8.844;2023-04-01T02:29:51;9.80;99.90
20891;DHT22;10605;52.968;8.844;2023-04-01T02:32:19;9.80;99.90
20891;DHT22;10605;52.968;8.844;2023-04-01T02:34:46;9.80;99.90
20891;DHT22;10605;52.968;8.844;2023-04-01T02:37:13;9.80;99.90
20891;DHT22;10605;52.968;8.844;2023-04-01T02:39:39;9.80;99.90
20891;DHT22;10605;52.968;8.844;2023-04-01T02:42:05;9.80;99.90
20891;DHT22;10605;52.968;8.844;2023-04-01T02:44:31;9.80;99.90
20891;DHT22;10605;52.968;8.844;2023-04-01T02:46:57;9.80;99.90
20891;DHT22;10605;52.968;8.844;2023-04-01T02:49:23;9.80;99.90
20891;DHT22;10605;52.968;8.844;2023-04-01T02:51:48;9.80;99.90
20891;DHT22;10605;52.968;8.844;2023-04-01T02:54:14;9.80;99.90
20891;DHT22;10605;52.968;8.844;2023-04-01T02:56:40;9.70;99.90
20891;DHT22;10605;52.968;8.844;2023-04-01T02:59:06;9.70;99.90
20891;DHT22;10605;52.968;8.844;2023-04-01T03:01:32;9.70;99.90
20891;DHT22;10605;52.968;8.844;2023-04-01T03:03:57;9.70;99.90
20891;DHT22;10605;52.968;8.844;2023-04-01T03:06:23;9.70;99.90
20891;DHT22;10605;52.968;8.844;2023-04-01T03:08:48;9.70;99.90
20891;DHT22;10605;52.968;8.844;2023-04-01T03:11:14;9.70;99.90
20891;DHT22;10605;52.968;8.844;2023-04-01T03:13:40;9.70;99.90
20891;DHT22;10605;52.968;8.844;2023-04-01T03:16:06;9.70;99.90
20891;DHT22;10605;52.968;8.844;2023-04-01T03:18:31;9.70;99.90
20891;DHT22;10605;52.968;8.844;2023-04-01T03:20:57;9.70;99.90
20891;DHT22;10605;52.968;8.844;2023-04-01T03:23:23;9.70;99.90
20891;DHT22;10605;52.968;8.844;2023-04-01T03:25:50;9.70;99.90
20891;DHT22;10605;52.968;8.844;2023-04-01T03:28:15;9.70;99.90
20891;DHT22;10605;52.968;8.844;2023-04-01T03:30:41;9.70;99.90
20891;DHT22;10605;52.968;8.844;2023-04-01T03:33:07;9.70;99.90
20891;DHT22;10605;52.968;8.844;2023-04-01T03:35:33;9.60;99.90
20891;DHT22;10605;52.968;8.844;2023-04-01T03:38:01;9.60;99.90
20891;DHT22;10605;52.968;8.844;2023-04-01T03:40:27;9.60;99.90
20891;DHT22;10605;52.968;8.844;2023-04-01T03:42:52;9.70;99.90
20891;DHT22;10605;52.968;8.844;2023-04-01T03:45:18;9.60;99.90
20891;DHT22;10605;52.968;8.844;2023-04-01T03:47:44;9.60;99.90
20891;DHT22;10605;52.968;8.844;2023-04-01T03:50:10;9.60;99.90
20891;DHT22;10605;52.968;8.844;2023-04-01T03:52:36;9.60;99.90
20891;DHT22;10605;52.968;8.844;2023-04-01T03:55:01;9.60;99.90
20891;DHT22;10605;52.968;8.844;2023-04-01T03:57:27;9.60;99.90
20891;DHT22;10605;52.968;8.844;2023-04-01T03:59:53;9.60;99.90
20891;DHT22;10605;52.968;8.844;2023-04-01T04:02:19;9.60;99.90
20891;DHT22;10605;52.968;8.844;2023-04-01T04:04:44;9.60;99.90
20891;DHT22;10605;52.968;8.844;2023-04-01T04:07:12;9.60;99.90
20891;DHT22;10605;52.968;8.844;2023-04-01T04:09:37;9.50;99.90
20891;DHT22;10605;52.968;8.844;2023-04-01T04:12:03;9.50;99.90
20891;DHT22;10605;52.968;8.844;2023-04-01T04:14:30;9.50;99.90
20891;DHT22;10605;52.968;8.844;2023-04-01T04:16:56;9.50;99.90
20891;DHT22;10605;52.968;8.844;2023-04-01T04:19:22;9.50;99.90
20891;DHT22;10605;52.968;8.844;2023-04-01T04:21:48;9.50;99.90
20891;DHT22;10605;52.968;8.844;2023-04-01T04:24:13;9.50;99.90
20891;DHT22;10605;52.968;8.844;2023-04-01T04:26:39;9.50;99.90
20891;DHT22;10605;52.968;8.844;2023-04-01T04:29:05;9.50;99.90
20891;DHT22;10605;52.968;8.844;2023-04-01T04:31:30;9.50;99.90
20891;DHT22;10605;52.968;8.844;2023-04-01T04:33:58;9.50;99.90
20891;DHT22;10605;52.968;8.844;2023-04-01T04:36:23;9.50;99.90
20891;DHT22;10605;52.968;8.844;2023-04-01T04:38:49;9.50;99.90
20891;DHT22;10605;52.968;8.844;2023-04-01T04:41:16;9.50;99.90
20891;DHT22;10605;52.968;8.844;2023-04-01T04:43:52;9.50;99.90
20891;DHT22;10605;52.968;8.844;2023-04-01T04:46:19;9.50;99.90
20891;DHT22;10605;52.968;8.844;2023-04-01T04:48:45;9.50;99.90
20891;DHT22;10605;52.968;8.844;2023-04-01T04:51:18;9.50;99.90
20891;DHT22;10605;52.968;8.844;2023-04-01T04:53:44;9.50;99.90
20891;DHT22;10605;52.968;8.844;2023-04-01T04:56:10;9.50;99.90
20891;DHT22;10605;52.968;8.844;2023-04-01T04:58:37;9.50;99.90
20891;DHT22;10605;52.968;8.844;2023-04-01T05:01:08;9.50;99.90
20891;DHT22;10605;52.968;8.844;2023-04-01T05:03:36;9.50;99.90
20891;DHT22;10605;52.968;8.844;2023-04-01T05:06:02;9.50;99.90
20891;DHT22;10605;52.968;8.844;2023-04-01T05:08:28;9.50;99.90
20891;DHT22;10605;52.968;8.844;2023-04-01T05:10:53;9.50;99.90
20891;DHT22;10605;52.968;8.844;2023-04-01T05:13:19;9.50;99.90
20891;DHT22;10605;52.968;8.844;2023-04-01T05:15:45;9.50;99.90
20891;DHT22;10605;52.968;8.844;2023-04-01T05:18:11;9.60;99.90
20891;DHT22;10605;52.968;8.844;2023-04-01T05:20:36;9.60;99.90
20891;DHT22;10605;52.968;8.844;2023-04-01T05:23:02;9.60;99.90
20891;DHT22;10605;52.968;8.844;2023-04-01T05:25:28;9.60;99.90
20891;DHT22;10605;52.968;8.844;2023-04-01T05:27:54;9.60;99.90
20891;DHT22;10605;52.968;8.844;2023-04-01T05:30:20;9.60;99.90
20891;DHT22;10605;52.968;8.844;2023-04-01T05:32:45;9.70;99.90
20891;DHT22;10605;52.968;8.844;2023-04-01T05:35:11;9.70;99.90
20891;DHT22;10605;52.968;8.844;2023-04-01T05:37:37;9.70;99.90
20891;DHT22;10605;52.968;8.844;2023-04-01T05:40:04;9.70;99.90
20891;DHT22;10605;52.968;8.844;2023-04-01T05:42:30;9.80;99.90
20891;DHT22;10605;52.968;8.844;2023-04-01T05:44:56;9.70;99.90
20891;DHT22;10605;52.968;8.844;2023-04-01T05:47:22;9.70;99.90
20891;DHT22;10605;52.968;8.844;2023-04-01T05:49:48;9.80;99.90
20891;DHT22;10605;52.968;8.844;2023-04-01T05:52:14;9.80;99.90
20891;DHT22;10605;52.968;8.844;2023-04-01T05:54:40;9.80;99.90
20891;DHT22;10605;52.968;8.844;2023-04-01T05:57:06;9.80;99.90
20891;DHT22;10605;52.968;8.844;2023-04-01T05:59:31;9.80;99.90
20891;DHT22;10605;52.968;8.844;2023-04-01T06:01:57;9.90;99.90
20891;DHT22;10605;52.968;8.844;2023-04-01T06:04:24;9.90;99.90
20891;DHT22;10605;52.968;8.844;2023-04-01T06:06:50;9.90;99.90
20891;DHT22;10605;52.968;8.844;2023-04-01T06:09:26;9.90;99.90
20891;DHT22;10605;52.968;8.844;2023-04-01T06:22:06;10.30;99.90
20891;DHT22;10605;52.968;8.844;2023-04-01T06:40:53;10.80;99.90
20891;DHT22;10605;52.968;8.844;2023-04-01T06:46:58;11.10;99.90
20891;DHT22;10605;52.968;8.844;2023-04-01T06:49:20;11.00;99.90
20891;DHT22;10605;52.968;8.844;2023-04-01T06:57:46;11.00;99.90
20891;DHT22;10605;52.968;8.844;2023-04-01T07:02:47;11.30;99.90
20891;DHT22;10605;52.968;8.844;2023-04-01T07:05:15;11.70;99.90
20891;DHT22;10605;52.968;8.844;2023-04-01T07:07:42;11.80;99.90
20891;DHT22;10605;52.968;8.844;2023-04-01T07:10:20;11.80;99.90
20891;DHT22;10605;52.968;8.844;2023-04-01T07:12:51;11.80;99.90
20891;DHT22;10605;52.968;8.844;2023-04-01T07:15:25;11.70;99.90
20891;DHT22;10605;52.968;8.844;2023-04-01T07:17:56;11.60;99.90
20891;DHT22;10605;52.968;8.844;2023-04-01T07:20:29;11.40;99.90
20891;DHT22;10605;52.968;8.844;2023-04-01T07:23:02;11.50;99.90
20891;DHT22;10605;52.968;8.844;2023-04-01T07:25:38;11.50;99.90
20891;DHT22;10605;52.968;8.844;2023-04-01T07:28:15;11.30;99.90
20891;DHT22;10605;52.968;8.844;2023-04-01T07:33:42;11.50;99.90
20891;DHT22;10605;52.968;8.844;2023-04-01T07:36:38;11.60;99.90
20891;DHT22;10605;52.968;8.844;2023-04-01T07:55:20;12.40;99.90
20891;DHT22;10605;52.968;8.844;2023-04-01T08:00:44;12.90;99.90
20891;DHT22;10605;52.968;8.844;2023-04-01T08:06:00;12.90;99.90
20891;DHT22;10605;52.968;8.844;2023-04-01T08:09:11;12.90;99.90
20891;DHT22;10605;52.968;8.844;2023-04-01T08:21:47;12.90;99.90
20891;DHT22;10605;52.968;8.844;2023-04-01T08:24:47;12.80;99.90
20891;DHT22;10605;52.968;8.844;2023-04-01T08:32:35;12.90;99.90
20891;DHT22;10605;52.968;8.844;2023-04-01T08:37:47;14.00;99.90
20891;DHT22;10605;52.968;8.844;2023-04-01T08:45:43;14.30;99.90
20891;DHT22;10605;52.968;8.844;2023-04-01T08:48:37;14.00;99.90
20891;DHT22;10605;52.968;8.844;2023-04-01T08:56:55;13.70;99.90
20891;DHT22;10605;52.968;8.844;2023-04-01T10:01:41;13.90;99.90
20891;DHT22;10605;52.968;8.844;2023-04-01T10:21:22;13.90;99.90
20891;DHT22;10605;52.968;8.844;2023-04-01T10:32:38;13.10;99.90
20891;DHT22;10605;52.968;8.844;2023-04-01T10:35:20;12.80;99.90
20891;DHT22;10605;52.968;8.844;2023-04-01T11:09:36;10.50;99.90
20891;DHT22;10605;52.968;8.844;2023-04-01T11:12:33;10.90;99.90
20891;DHT22;10605;52.968;8.844;2023-04-01T11:18:38;10.60;99.90
20891;DHT22;10605;52.968;8.844;2023-04-01T11:30:01;11.30;99.90
20891;DHT22;10605;52.968;8.844;2023-04-01T11:52:36;10.60;99.90
20891;DHT22;10605;52.968;8.844;2023-04-01T12:17:07;11.20;99.90
20891;DHT22;10605;52.968;8.844;2023-04-01T12:19:58;10.90;99.90
20891;DHT22;10605;52.968;8.844;2023-04-01T12:25:27;11.00;99.90
20891;DHT22;10605;52.968;8.844;2023-04-01T12:30:58;10.40;99.90
20891;DHT22;10605;52.968;8.844;2023-04-01T12:33:36;10.10;99.90
20891;DHT22;10605;52.968;8.844;2023-04-01T12:36:11;9.80;99.90
20891;DHT22;10605;52.968;8.844;2023-04-01T12:41:29;9.80;99.90
20891;DHT22;10605;52.968;8.844;2023-04-01T12:58:13;9.80;99.90
20891;DHT22;10605;52.968;8.844;2023-04-01T13:07:30;9.70;99.90
20891;DHT22;10605;52.968;8.844;2023-04-01T13:10:13;9.50;99.90
20891;DHT22;10605;52.968;8.844;2023-04-01T13:12:58;9.50;99.90
20891;DHT22;10605;52.968;8.844;2023-04-01T13:25:54;9.20;99.90
20891;DHT22;10605;52.968;8.844;2023-04-01T13:28:37;9.40;99.90
20891;DHT22;10605;52.968;8.844;2023-04-01T13:34:21;9.20;99.90
20891;DHT22;10605;52.968;8.844;2023-04-01T13:42:47;9.10;99.90
20891;DHT22;10605;52.968;8.844;2023-04-01T13:45:22;9.10;99.90
20891;DHT22;10605;52.968;8.844;2023-04-01T13:56:42;8.80;99.90
20891;DHT22;10605;52.968;8.844;2023-04-01T14:08:17;9.30;99.90
20891;DHT22;10605;52.968;8.844;2023-04-01T14:17:13;9.10;99.90
20891;DHT22;10605;52.968;8.844;2023-04-01T14:30:05;9.40;99.90
20891;DHT22;10605;52.968;8.844;2023-04-01T14:35:41;9.30;99.90
20891;DHT22;10605;52.968;8.844;2023-04-01T14:41:20;8.90;99.90
20891;DHT22;10605;52.968;8.844;2023-04-01T14:52:10;8.50;99.90
20891;DHT22;10605;52.968;8.844;2023-04-01T14:54:37;8.40;99.90
20891;DHT22;10605;52.968;8.844;2023-04-01T14:59:40;8.40;99.90
20891;DHT22;10605;52.968;8.844;2023-04-01T15:05:16;8.30;99.90
20891;DHT22;10605;52.968;8.844;2023-04-01T15:26:22;8.00;99.90
20891;DHT22;10605;52.968;8.844;2023-04-01T15:34:34;7.90;99.90
20891;DHT22;10605;52.968;8.844;2023-04-01T15:37:04;8.00;99.90
20891;DHT22;10605;52.968;8.844;2023-04-01T15:42:49;7.80;99.90
20891;DHT22;10605;52.968;8.844;2023-04-01T15:50:48;7.60;99.90
20891;DHT22;10605;52.968;8.844;2023-04-01T15:53:56;7.50;99.90
20891;DHT22;10605;52.968;8.844;2023-04-01T15:56:49;7.50;99.90
20891;DHT22;10605;52.968;8.844;2023-04-01T15:59:44;7.40;99.90
20891;DHT22;10605;52.968;8.844;2023-04-01T16:02:28;7.30;99.90
20891;DHT22;10605;52.968;8.844;2023-04-01T16:05:06;7.40;99.90
20891;DHT22;10605;52.968;8.844;2023-04-01T16:08:37;7.40;99.90
20891;DHT22;10605;52.968;8.844;2023-04-01T16:24:22;7.20;99.90
20891;DHT22;10605;52.968;8.844;2023-04-01T16:32:29;7.10;99.90
20891;DHT22;10605;52.968;8.844;2023-04-01T16:35:20;7.00;99.90
20891;DHT22;10605;52.968;8.844;2023-04-01T16:46:27;6.80;99.90
20891;DHT22;10605;52.968;8.844;2023-04-01T16:57:43;6.70;99.90
20891;DHT22;10605;52.968;8.844;2023-04-01T17:02:49;6.70;99.90
20891;DHT22;10605;52.968;8.844;2023-04-01T17:05:16;6.60;99.90
20891;DHT22;10605;52.968;8.844;2023-04-01T17:10:57;6.70;99.90
20891;DHT22;10605;52.968;8.844;2023-04-01T17:13:44;6.60;99.90
20891;DHT22;10605;52.968;8.844;2023-04-01T17:16:30;6.60;99.90
20891;DHT22;10605;52.968;8.844;2023-04-01T17:30:42;6.40;99.90
20891;DHT22;10605;52.968;8.844;2023-04-01T17:39:26;6.20;99.90
20891;DHT22;10605;52.968;8.844;2023-04-01T17:42:16;6.10;99.90
20891;DHT22;10605;52.968;8.844;2023-04-01T17:44:56;6.10;99.90
20891;DHT22;10605;52.968;8.844;2023-04-01T17:47:31;6.10;99.90
20891;DHT22;10605;52.968;8.844;2023-04-01T17:50:21;6.10;99.90
20891;DHT22;10605;52.968;8.844;2023-04-01T17:53:14;6.10;99.90
20891;DHT22;10605;52.968;8.844;2023-04-01T17:58:28;6.10;99.90
20891;DHT22;10605;52.968;8.844;2023-04-01T18:17:55;5.80;99.90
20891;DHT22;10605;52.968;8.844;2023-04-01T18:20:50;5.80;99.90
20891;DHT22;10605;52.968;8.844;2023-04-01T18:23:27;5.80;99.90
20891;DHT22;10605;52.968;8.844;2023-04-01T18:26:04;5.80;99.90
20891;DHT22;10605;52.968;8.844;2023-04-01T18:28:32;5.80;99.90
20891;DHT22;10605;52.968;8.844;2023-04-01T18:36:55;5.70;99.90
20891;DHT22;10605;52.968;8.844;2023-04-01T18:39:37;5.60;99.90
20891;DHT22;10605;52.968;8.844;2023-04-01T18:50:47;5.60;99.90
20891;DHT22;10605;52.968;8.844;2023-04-01T18:53:35;5.50;99.90
20891;DHT22;10605;52.968;8.844;2023-04-01T18:56:13;5.50;99.90
20891;DHT22;10605;52.968;8.844;2023-04-01T18:58:48;5.50;99.90
20891;DHT22;10605;52.968;8.844;2023-04-01T19:01:27;5.50;99.90
20891;DHT22;10605;52.968;8.844;2023-04-01T19:06:28;5.50;99.90
20891;DHT22;10605;52.968;8.844;2023-04-01T19:08:54;5.40;99.90
20891;DHT22;10605;52.968;8.844;2023-04-01T19:11:35;5.30;99.90
20891;DHT22;10605;52.968;8.844;2023-04-01T19:17:10;5.30;99.90
20891;DHT22;10605;52.968;8.844;2023-04-01T19:22:43;5.20;99.90
20891;DHT22;10605;52.968;8.844;2023-04-01T19:31:04;5.10;99.90
20891;DHT22;10605;52.968;8.844;2023-04-01T19:33:50;5.20;99.90
20891;DHT22;10605;52.968;8.844;2023-04-01T19:36:35;5.10;99.90
20891;DHT22;10605;52.968;8.844;2023-04-01T19:39:31;5.10;99.90
20891;DHT22;10605;52.968;8.844;2023-04-01T19:42:02;5.00;99.90
20891;DHT22;10605;52.968;8.844;2023-04-01T19:47:37;5.00;99.90
20891;DHT22;10605;52.968;8.844;2023-04-01T19:56:39;5.00;99.90
20891;DHT22;10605;52.968;8.844;2023-04-01T20:01:38;5.00;99.90
20891;DHT22;10605;52.968;8.844;2023-04-01T20:04:17;5.00;99.90
20891;DHT22;10605;52.968;8.844;2023-04-01T20:07:37;4.90;99.90
20891;DHT22;10605;52.968;8.844;2023-04-01T20:12:34;4.80;99.90
20891;DHT22;10605;52.968;8.844;2023-04-01T20:17:53;4.80;99.90
20891;DHT22;10605;52.968;8.844;2023-04-01T20:20:23;4.80;99.90
20891;DHT22;10605;52.968;8.844;2023-04-01T20:25:43;4.80;99.90
20891;DHT22;10605;52.968;8.844;2023-04-01T20:28:20;4.70;99.90
20891;DHT22;10605;52.968;8.844;2023-04-01T20:36:46;4.70;99.90
20891;DHT22;10605;52.968;8.844;2023-04-01T20:42:32;4.70;99.90
20891;DHT22;10605;52.968;8.844;2023-04-01T20:51:03;4.70;99.90
20891;DHT22;10605;52.968;8.844;2023-04-01T20:53:42;4.70;99.90
20891;DHT22;10605;52.968;8.844;2023-04-01T21:13:21;4.60;99.90
20891;DHT22;10605;52.968;8.844;2023-04-01T21:19:03;4.50;99.90
20891;DHT22;10605;52.968;8.844;2023-04-01T21:27:37;4.30;99.90
20891;DHT22;10605;52.968;8.844;2023-04-01T21:30:35;4.30;99.90
20891;DHT22;10605;52.968;8.844;2023-04-01T21:34:14;4.20;99.90
20891;DHT22;10605;52.968;8.844;2023-04-01T21:47:27;4.20;99.90
20891;DHT22;10605;52.968;8.844;2023-04-01T22:06:40;4.10;99.90
20891;DHT22;10605;52.968;8.844;2023-04-01T22:12:09;4.00;99.90
20891;DHT22;10605;52.968;8.844;2023-04-01T22:26:09;4.00;99.90
20891;DHT22;10605;52.968;8.844;2023-04-01T22:34:16;3.90;99.90
20891;DHT22;10605;52.968;8.844;2023-04-01T22:50:26;3.60;99.90
20891;DHT22;10605;52.968;8.844;2023-04-01T22:53:12;3.50;99.90
20891;DHT22;10605;52.968;8.844;2023-04-01T22:55:41;3.30;99.90
20891;DHT22;10605;52.968;8.844;2023-04-01T22:58:14;3.20;99.90
20891;DHT22;10605;52.968;8.844;2023-04-01T23:00:45;3.20;99.90
20891;DHT22;10605;52.968;8.844;2023-04-01T23:03:17;3.10;99.90
20891;DHT22;10605;52.968;8.844;2023-04-01T23:05:51;3.10;99.90
20891;DHT22;10605;52.968;8.844;2023-04-01T23:11:01;2.90;99.90
20891;DHT22;10605;52.968;8.844;2023-04-01T23:13:45;2.90;99.90
20891;DHT22;10605;52.968;8.844;2023-04-01T23:16:14;2.80;99.90
20891;DHT22;10605;52.968;8.844;2023-04-01T23:26:49;2.70;99.90
20891;DHT22;10605;52.968;8.844;2023-04-01T23:29:18;2.70;99.90
20891;DHT22;10605;52.968;8.844;2023-04-01T23:31:56;2.60;99.90
20891;DHT22;10605;52.968;8.844;2023-04-01T23:36:56;2.60;99.90
20891;DHT22;10605;52.968;8.844;2023-04-01T23:39:25;2.70;99.90
20891;DHT22;10605;52.968;8.844;2023-04-01T23:41:54;2.60;99.90
20891;DHT22;10605;52.968;8.844;2023-04-01T23:44:20;2.50;99.90
20891;DHT22;10605;52.968;8.844;2023-04-01T23:46:47;2.50;99.90
20891;DHT22;10605;52.968;8.844;2023-04-01T23:49:30;2.50;99.90
20891;DHT22;10605;52.968;8.844;2023-04-01T23:52:24;2.50;99.90
20891;DHT22;10605;52.968;8.844;2023-04-01T23:55:25;2.40;99.90
